sensor_id;sensor_type;location;lat;lon;timestamp;temperature;humidity
31084;DHT22;36333;51.382;0.016;2022-11-27T00:01:29;10.60;99.90
31084;DHT22;36333;51.382;0.016;2022-11-27T00:03:58;10.60;99.90
31084;DHT22;36333;51.382;0.016;2022-11-27T00:06:27;11.10;99.90
31084;DHT22;36333;51.382;0.016;2022-11-27T00:08:56;10.60;99.90
31084;DHT22;36333;51.382;0.016;2022-11-27T00:11:25;10.50;99.90
31084;DHT22;36333;51.382;0.016;2022-11-27T00:13:53;10.50;99.90
31084;DHT22;36333;51.382;0.016;2022-11-27T00:16:22;10.50;99.90
31084;DHT22;36333;51.382;0.016;2022-11-27T00:18:50;10.50;99.90
31084;DHT22;36333;51.382;0.016;2022-11-27T00:21:30;10.50;99.90
31084;DHT22;36333;51.382;0.016;2022-11-27T00:23:59;10.50;99.90
31084;DHT22;36333;51.382;0.016;2022-11-27T00:26:28;8.70;99.90
31084;DHT22;36333;51.382;0.016;2022-11-27T00:29:04;10.20;99.90
31084;DHT22;36333;51.382;0.016;2022-11-27T00:31:32;11.10;99.90
31084;DHT22;36333;51.382;0.016;2022-11-27T00:34:02;10.50;99.90
31084;DHT22;36333;51.382;0.016;2022-11-27T00:36:31;10.40;99.90
31084;DHT22;36333;51.382;0.016;2022-11-27T00:39:00;10.40;99.90
31084;DHT22;36333;51.382;0.016;2022-11-27T00:41:28;10.40;99.90
31084;DHT22;36333;51.382;0.016;2022-11-27T00:43:57;10.40;99.90
31084;DHT22;36333;51.382;0.016;2022-11-27T00:46:25;10.40;99.90
31084;DHT22;36333;51.382;0.016;2022-11-27T00:49:00;10.30;99.90
31084;DHT22;36333;51.382;0.016;2022-11-27T00:51:28;10.90;99.90
31084;DHT22;36333;51.382;0.016;2022-11-27T00:53:56;10.40;99.90
31084;DHT22;36333;51.382;0.016;2022-11-27T00:56:26;10.30;99.90
31084;DHT22;36333;51.382;0.016;2022-11-27T00:58:54;10.20;99.90
31084;DHT22;36333;51.382;0.016;2022-11-27T01:01:26;10.20;99.90
31084;DHT22;36333;51.382;0.016;2022-11-27T01:03:55;10.20;99.90
31084;DHT22;36333;51.382;0.016;2022-11-27T01:06:24;10.20;99.90
31084;DHT22;36333;51.382;0.016;2022-11-27T01:08:53;10.40;99.90
31084;DHT22;36333;51.382;0.016;2022-11-27T01:11:23;11.20;99.90
31084;DHT22;36333;51.382;0.016;2022-11-27T01:13:56;10.10;99.90
31084;DHT22;36333;51.382;0.016;2022-11-27T01:16:26;11.00;99.90
31084;DHT22;36333;51.382;0.016;2022-11-27T01:18:55;10.10;99.90
31084;DHT22;36333;51.382;0.016;2022-11-27T01:21:25;10.10;99.90
31084;DHT22;36333;51.382;0.016;2022-11-27T01:23:54;10.10;99.90
31084;DHT22;36333;51.382;0.016;2022-11-27T01:26:22;10.30;99.90
31084;DHT22;36333;51.382;0.016;2022-11-27T01:28:53;10.10;99.90
31084;DHT22;36333;51.382;0.016;2022-11-27T01:31:23;10.10;99.90
31084;DHT22;36333;51.382;0.016;2022-11-27T01:33:53;10.10;99.90
31084;DHT22;36333;51.382;0.016;2022-11-27T01:36:21;10.40;99.90
31084;DHT22;36333;51.382;0.016;2022-11-27T01:38:49;11.00;99.90
31084;DHT22;36333;51.382;0.016;2022-11-27T01:44:48;10.10;99.90
31084;DHT22;36333;51.382;0.016;2022-11-27T01:46:55;10.10;99.90
31084;DHT22;36333;51.382;0.016;2022-11-27T01:51:58;10.30;99.90
31084;DHT22;36333;51.382;0.016;2022-11-27T01:54:36;10.20;99.90
31084;DHT22;36333;51.382;0.016;2022-11-27T01:57:17;10.10;99.90
31084;DHT22;36333;51.382;0.016;2022-11-27T01:59:47;11.00;99.90
31084;DHT22;36333;51.382;0.016;2022-11-27T02:02:15;10.70;99.90
31084;DHT22;36333;51.382;0.016;2022-11-27T02:04:42;10.20;99.90
31084;DHT22;36333;51.382;0.016;2022-11-27T02:07:10;10.50;99.90
31084;DHT22;36333;51.382;0.016;2022-11-27T02:09:38;10.60;99.90
31084;DHT22;36333;51.382;0.016;2022-11-27T02:12:27;10.30;99.90
31084;DHT22;36333;51.382;0.016;2022-11-27T02:15:30;10.20;99.90
31084;DHT22;36333;51.382;0.016;2022-11-27T02:21:04;10.20;99.90
31084;DHT22;36333;51.382;0.016;2022-11-27T02:29:22;10.30;99.90
31084;DHT22;36333;51.382;0.016;2022-11-27T02:31:58;10.50;99.90
31084;DHT22;36333;51.382;0.016;2022-11-27T02:34:49;10.80;99.90
31084;DHT22;36333;51.382;0.016;2022-11-27T02:37:25;10.30;99.90
31084;DHT22;36333;51.382;0.016;2022-11-27T02:40:09;10.30;99.90
31084;DHT22;36333;51.382;0.016;2022-11-27T02:42:49;10.30;99.90
31084;DHT22;36333;51.382;0.016;2022-11-27T02:45:24;10.40;99.90
31084;DHT22;36333;51.382;0.016;2022-11-27T02:47:55;10.50;99.90
31084;DHT22;36333;51.382;0.016;2022-11-27T02:50:24;10.40;99.90
31084;DHT22;36333;51.382;0.016;2022-11-27T02:52:58;10.40;99.90
31084;DHT22;36333;51.382;0.016;2022-11-27T02:55:31;10.40;99.90
31084;DHT22;36333;51.382;0.016;2022-11-27T02:58:01;10.40;99.90
31084;DHT22;36333;51.382;0.016;2022-11-27T03:00:30;11.00;99.90
31084;DHT22;36333;51.382;0.016;2022-11-27T03:03:02;10.50;99.90
31084;DHT22;36333;51.382;0.016;2022-11-27T03:05:34;10.50;99.90
31084;DHT22;36333;51.382;0.016;2022-11-27T03:08:33;11.80;99.90
31084;DHT22;36333;51.382;0.016;2022-11-27T03:11:10;10.60;99.90
31084;DHT22;36333;51.382;0.016;2022-11-27T03:13:46;10.50;99.90
31084;DHT22;36333;51.382;0.016;2022-11-27T03:16:29;11.80;99.90
31084;DHT22;36333;51.382;0.016;2022-11-27T03:21:49;10.60;99.90
31084;DHT22;36333;51.382;0.016;2022-11-27T03:24:19;10.60;99.90
31084;DHT22;36333;51.382;0.016;2022-11-27T03:26:47;10.60;99.90
31084;DHT22;36333;51.382;0.016;2022-11-27T03:31:57;10.70;99.90
31084;DHT22;36333;51.382;0.016;2022-11-27T03:34:28;10.70;99.90
31084;DHT22;36333;51.382;0.016;2022-11-27T03:36:56;10.70;99.90
31084;DHT22;36333;51.382;0.016;2022-11-27T03:39:23;11.10;99.90
31084;DHT22;36333;51.382;0.016;2022-11-27T03:44:44;10.80;99.90
31084;DHT22;36333;51.382;0.016;2022-11-27T03:50:17;10.80;99.90
31084;DHT22;36333;51.382;0.016;2022-11-27T03:53:07;10.80;99.90
31084;DHT22;36333;51.382;0.016;2022-11-27T03:58:30;10.90;99.90
31084;DHT22;36333;51.382;0.016;2022-11-27T04:01:01;10.90;99.90
31084;DHT22;36333;51.382;0.016;2022-11-27T04:03:30;10.90;99.90
31084;DHT22;36333;51.382;0.016;2022-11-27T04:05:58;11.20;99.90
31084;DHT22;36333;51.382;0.016;2022-11-27T04:08:25;10.90;99.90
31084;DHT22;36333;51.382;0.016;2022-11-27T04:10:53;11.00;99.90
31084;DHT22;36333;51.382;0.016;2022-11-27T04:13:20;11.00;99.90
31084;DHT22;36333;51.382;0.016;2022-11-27T04:15:47;11.00;99.90
31084;DHT22;36333;51.382;0.016;2022-11-27T04:18:15;10.90;99.90
31084;DHT22;36333;51.382;0.016;2022-11-27T04:20:43;11.00;99.90
31084;DHT22;36333;51.382;0.016;2022-11-27T04:23:10;11.10;99.90
31084;DHT22;36333;51.382;0.016;2022-11-27T04:25:38;11.00;99.90
31084;DHT22;36333;51.382;0.016;2022-11-27T04:28:05;11.00;99.90
31084;DHT22;36333;51.382;0.016;2022-11-27T04:30:33;11.00;99.90
31084;DHT22;36333;51.382;0.016;2022-11-27T04:33:00;11.10;99.90
31084;DHT22;36333;51.382;0.016;2022-11-27T04:35:28;11.30;99.90
31084;DHT22;36333;51.382;0.016;2022-11-27T04:37:56;11.10;99.90
31084;DHT22;36333;51.382;0.016;2022-11-27T04:40:24;11.10;99.90
31084;DHT22;36333;51.382;0.016;2022-11-27T04:42:51;11.10;99.90
31084;DHT22;36333;51.382;0.016;2022-11-27T04:45:19;11.20;99.90
31084;DHT22;36333;51.382;0.016;2022-11-27T04:47:46;11.10;99.90
31084;DHT22;36333;51.382;0.016;2022-11-27T04:50:14;11.30;99.90
31084;DHT22;36333;51.382;0.016;2022-11-27T04:52:42;11.10;99.90
31084;DHT22;36333;51.382;0.016;2022-11-27T04:55:09;11.10;99.90
31084;DHT22;36333;51.382;0.016;2022-11-27T04:57:37;11.20;99.90
31084;DHT22;36333;51.382;0.016;2022-11-27T05:00:05;11.20;99.90
31084;DHT22;36333;51.382;0.016;2022-11-27T05:02:32;11.20;99.90
31084;DHT22;36333;51.382;0.016;2022-11-27T05:05:00;11.20;99.90
31084;DHT22;36333;51.382;0.016;2022-11-27T05:07:27;11.40;99.90
31084;DHT22;36333;51.382;0.016;2022-11-27T05:09:55;11.20;99.90
31084;DHT22;36333;51.382;0.016;2022-11-27T05:12:22;11.20;99.90
31084;DHT22;36333;51.382;0.016;2022-11-27T05:14:50;11.20;99.90
31084;DHT22;36333;51.382;0.016;2022-11-27T05:17:17;11.20;99.90
31084;DHT22;36333;51.382;0.016;2022-11-27T05:19:45;11.20;99.90
31084;DHT22;36333;51.382;0.016;2022-11-27T05:22:12;11.40;99.90
31084;DHT22;36333;51.382;0.016;2022-11-27T05:24:40;11.30;99.90
31084;DHT22;36333;51.382;0.016;2022-11-27T05:27:07;11.30;99.90
31084;DHT22;36333;51.382;0.016;2022-11-27T05:29:35;11.30;99.90
31084;DHT22;36333;51.382;0.016;2022-11-27T05:32:02;11.40;99.90
31084;DHT22;36333;51.382;0.016;2022-11-27T05:34:30;11.30;99.90
31084;DHT22;36333;51.382;0.016;2022-11-27T05:36:57;11.30;99.90
31084;DHT22;36333;51.382;0.016;2022-11-27T05:39:25;11.40;99.90
31084;DHT22;36333;51.382;0.016;2022-11-27T05:41:52;11.30;99.90
31084;DHT22;36333;51.382;0.016;2022-11-27T05:44:20;12.20;99.90
31084;DHT22;36333;51.382;0.016;2022-11-27T05:46:47;11.30;99.90
31084;DHT22;36333;51.382;0.016;2022-11-27T05:49:15;11.30;99.90
31084;DHT22;36333;51.382;0.016;2022-11-27T05:51:43;11.90;99.90
31084;DHT22;36333;51.382;0.016;2022-11-27T05:54:17;11.30;99.90
31084;DHT22;36333;51.382;0.016;2022-11-27T05:56:45;11.90;99.90
31084;DHT22;36333;51.382;0.016;2022-11-27T05:59:13;11.30;99.90
31084;DHT22;36333;51.382;0.016;2022-11-27T06:01:41;11.40;99.90
31084;DHT22;36333;51.382;0.016;2022-11-27T06:04:09;11.30;99.90
31084;DHT22;36333;51.382;0.016;2022-11-27T06:06:36;11.40;99.90
31084;DHT22;36333;51.382;0.016;2022-11-27T06:09:04;11.40;99.90
31084;DHT22;36333;51.382;0.016;2022-11-27T06:11:40;11.60;99.90
31084;DHT22;36333;51.382;0.016;2022-11-27T06:14:09;11.40;99.90
31084;DHT22;36333;51.382;0.016;2022-11-27T06:16:37;11.40;99.90
31084;DHT22;36333;51.382;0.016;2022-11-27T06:19:04;11.50;99.90
31084;DHT22;36333;51.382;0.016;2022-11-27T06:21:32;11.50;99.90
31084;DHT22;36333;51.382;0.016;2022-11-27T06:23:59;11.50;99.90
31084;DHT22;36333;51.382;0.016;2022-11-27T06:26:29;11.50;99.90
31084;DHT22;36333;51.382;0.016;2022-11-27T06:28:58;11.50;99.90
31084;DHT22;36333;51.382;0.016;2022-11-27T06:31:29;11.60;99.90
31084;DHT22;36333;51.382;0.016;2022-11-27T06:33:58;11.50;99.90
31084;DHT22;36333;51.382;0.016;2022-11-27T06:36:34;11.50;99.90
31084;DHT22;36333;51.382;0.016;2022-11-27T06:39:04;11.50;99.90
31084;DHT22;36333;51.382;0.016;2022-11-27T06:41:32;11.70;99.90
31084;DHT22;36333;51.382;0.016;2022-11-27T06:44:00;11.50;99.90
31084;DHT22;36333;51.382;0.016;2022-11-27T06:46:28;11.50;99.90
31084;DHT22;36333;51.382;0.016;2022-11-27T06:48:57;11.60;99.90
31084;DHT22;36333;51.382;0.016;2022-11-27T06:51:26;11.50;99.90
31084;DHT22;36333;51.382;0.016;2022-11-27T06:53:54;11.50;99.90
31084;DHT22;36333;51.382;0.016;2022-11-27T06:56:25;11.50;99.90
31084;DHT22;36333;51.382;0.016;2022-11-27T06:58:55;11.50;99.90
31084;DHT22;36333;51.382;0.016;2022-11-27T07:01:25;11.50;99.90
31084;DHT22;36333;51.382;0.016;2022-11-27T07:03:52;11.50;99.90
31084;DHT22;36333;51.382;0.016;2022-11-27T07:06:22;11.50;99.90
31084;DHT22;36333;51.382;0.016;2022-11-27T07:08:50;11.50;99.90
31084;DHT22;36333;51.382;0.016;2022-11-27T07:11:21;11.50;99.90
31084;DHT22;36333;51.382;0.016;2022-11-27T07:13:49;11.60;99.90
31084;DHT22;36333;51.382;0.016;2022-11-27T07:16:17;11.50;99.90
31084;DHT22;36333;51.382;0.016;2022-11-27T07:18:51;11.50;99.90
31084;DHT22;36333;51.382;0.016;2022-11-27T07:21:20;11.50;99.90
31084;DHT22;36333;51.382;0.016;2022-11-27T07:23:48;11.60;99.90
31084;DHT22;36333;51.382;0.016;2022-11-27T07:26:17;11.50;99.90
31084;DHT22;36333;51.382;0.016;2022-11-27T07:28:53;11.50;99.90
31084;DHT22;36333;51.382;0.016;2022-11-27T07:31:46;11.50;99.90
31084;DHT22;36333;51.382;0.016;2022-11-27T07:34:14;11.60;99.90
31084;DHT22;36333;51.382;0.016;2022-11-27T07:36:48;11.50;99.90
31084;DHT22;36333;51.382;0.016;2022-11-27T07:39:16;11.50;99.90
31084;DHT22;36333;51.382;0.016;2022-11-27T07:42:00;11.60;99.90
31084;DHT22;36333;51.382;0.016;2022-11-27T07:44:47;11.60;99.90
31084;DHT22;36333;51.382;0.016;2022-11-27T07:47:15;11.60;99.90
31084;DHT22;36333;51.382;0.016;2022-11-27T07:49:42;11.60;99.90
31084;DHT22;36333;51.382;0.016;2022-11-27T07:52:10;11.60;99.90
31084;DHT22;36333;51.382;0.016;2022-11-27T07:54:37;11.60;99.90
31084;DHT22;36333;51.382;0.016;2022-11-27T07:57:06;12.00;99.90
31084;DHT22;36333;51.382;0.016;2022-11-27T07:59:36;11.60;99.90
31084;DHT22;36333;51.382;0.016;2022-11-27T08:02:03;11.60;99.90
31084;DHT22;36333;51.382;0.016;2022-11-27T08:04:33;11.60;99.90
31084;DHT22;36333;51.382;0.016;2022-11-27T08:07:01;11.60;99.90
31084;DHT22;36333;51.382;0.016;2022-11-27T08:09:28;11.80;99.90
31084;DHT22;36333;51.382;0.016;2022-11-27T08:11:56;11.70;99.90
31084;DHT22;36333;51.382;0.016;2022-11-27T08:14:24;11.70;99.90
31084;DHT22;36333;51.382;0.016;2022-11-27T08:16:52;10.10;99.90
31084;DHT22;36333;51.382;0.016;2022-11-27T08:19:20;11.70;99.90
31084;DHT22;36333;51.382;0.016;2022-11-27T08:21:47;11.60;99.90
31084;DHT22;36333;51.382;0.016;2022-11-27T08:24:15;11.80;99.90
31084;DHT22;36333;51.382;0.016;2022-11-27T08:26:42;11.70;99.90
31084;DHT22;36333;51.382;0.016;2022-11-27T08:29:11;11.70;99.90
31084;DHT22;36333;51.382;0.016;2022-11-27T08:31:39;11.70;99.90
31084;DHT22;36333;51.382;0.016;2022-11-27T08:34:07;11.70;99.90
31084;DHT22;36333;51.382;0.016;2022-11-27T08:36:35;12.20;99.90
31084;DHT22;36333;51.382;0.016;2022-11-27T08:39:02;11.80;99.90
31084;DHT22;36333;51.382;0.016;2022-11-27T08:41:30;11.80;99.90
31084;DHT22;36333;51.382;0.016;2022-11-27T08:43:58;12.20;99.90
31084;DHT22;36333;51.382;0.016;2022-11-27T08:46:26;11.90;99.90
31084;DHT22;36333;51.382;0.016;2022-11-27T08:48:53;11.90;99.90
31084;DHT22;36333;51.382;0.016;2022-11-27T08:51:21;11.80;99.90
31084;DHT22;36333;51.382;0.016;2022-11-27T08:53:51;11.90;99.90
31084;DHT22;36333;51.382;0.016;2022-11-27T08:56:24;11.80;99.90
31084;DHT22;36333;51.382;0.016;2022-11-27T08:58:52;11.90;99.90
31084;DHT22;36333;51.382;0.016;2022-11-27T09:01:25;12.00;99.90
31084;DHT22;36333;51.382;0.016;2022-11-27T09:03:53;11.90;99.90
31084;DHT22;36333;51.382;0.016;2022-11-27T09:06:23;11.90;99.90
31084;DHT22;36333;51.382;0.016;2022-11-27T09:08:54;12.70;99.90
31084;DHT22;36333;51.382;0.016;2022-11-27T09:11:22;12.40;99.90
31084;DHT22;36333;51.382;0.016;2022-11-27T09:14:00;12.00;99.90
31084;DHT22;36333;51.382;0.016;2022-11-27T09:16:28;11.90;99.90
31084;DHT22;36333;51.382;0.016;2022-11-27T09:18:57;11.90;99.90
31084;DHT22;36333;51.382;0.016;2022-11-27T09:21:26;11.90;99.90
31084;DHT22;36333;51.382;0.016;2022-11-27T09:23:56;12.00;99.90
31084;DHT22;36333;51.382;0.016;2022-11-27T09:26:25;12.80;99.90
31084;DHT22;36333;51.382;0.016;2022-11-27T09:28:54;12.50;99.90
31084;DHT22;36333;51.382;0.016;2022-11-27T09:31:24;12.00;99.90
31084;DHT22;36333;51.382;0.016;2022-11-27T09:33:56;12.90;99.90
31084;DHT22;36333;51.382;0.016;2022-11-27T09:36:24;12.90;99.90
31084;DHT22;36333;51.382;0.016;2022-11-27T09:38:52;13.30;99.90
31084;DHT22;36333;51.382;0.016;2022-11-27T09:41:54;12.10;99.90
31084;DHT22;36333;51.382;0.016;2022-11-27T09:44:43;12.10;99.90
31084;DHT22;36333;51.382;0.016;2022-11-27T09:47:22;12.30;99.90
31084;DHT22;36333;51.382;0.016;2022-11-27T09:50:01;12.30;99.90
31084;DHT22;36333;51.382;0.016;2022-11-27T09:52:50;12.30;99.90
31084;DHT22;36333;51.382;0.016;2022-11-27T09:55:41;12.20;99.90
31084;DHT22;36333;51.382;0.016;2022-11-27T09:58:20;12.20;99.90
31084;DHT22;36333;51.382;0.016;2022-11-27T10:00:50;12.30;99.90
31084;DHT22;36333;51.382;0.016;2022-11-27T10:03:22;12.20;99.90
31084;DHT22;36333;51.382;0.016;2022-11-27T10:17:14;12.40;99.90
31084;DHT22;36333;51.382;0.016;2022-11-27T10:19:56;12.50;99.90
31084;DHT22;36333;51.382;0.016;2022-11-27T10:25:34;12.50;99.90
31084;DHT22;36333;51.382;0.016;2022-11-27T10:28:55;12.50;99.90
31084;DHT22;36333;51.382;0.016;2022-11-27T10:31:50;12.50;99.90
31084;DHT22;36333;51.382;0.016;2022-11-27T10:34:48;12.50;99.90
31084;DHT22;36333;51.382;0.016;2022-11-27T10:37:40;12.50;99.90
31084;DHT22;36333;51.382;0.016;2022-11-27T10:45:23;12.70;99.90
31084;DHT22;36333;51.382;0.016;2022-11-27T10:47:52;12.80;99.90
31084;DHT22;36333;51.382;0.016;2022-11-27T10:50:21;12.70;99.90
31084;DHT22;36333;51.382;0.016;2022-11-27T10:52:54;12.80;99.90
31084;DHT22;36333;51.382;0.016;2022-11-27T10:55:58;12.80;99.90
31084;DHT22;36333;51.382;0.016;2022-11-27T11:01:06;12.90;99.90
31084;DHT22;36333;51.382;0.016;2022-11-27T11:03:34;12.90;99.90
31084;DHT22;36333;51.382;0.016;2022-11-27T11:06:14;13.00;99.90
31084;DHT22;36333;51.382;0.016;2022-11-27T11:09:04;11.30;99.90
31084;DHT22;36333;51.382;0.016;2022-11-27T11:11:32;13.20;99.90
31084;DHT22;36333;51.382;0.016;2022-11-27T11:14:01;13.10;99.90
31084;DHT22;36333;51.382;0.016;2022-11-27T11:16:29;13.30;99.90
31084;DHT22;36333;51.382;0.016;2022-11-27T11:19:02;13.10;99.90
31084;DHT22;36333;51.382;0.016;2022-11-27T11:21:40;13.10;99.90
31084;DHT22;36333;51.382;0.016;2022-11-27T11:24:12;13.10;99.90
31084;DHT22;36333;51.382;0.016;2022-11-27T11:27:19;13.40;99.90
31084;DHT22;36333;51.382;0.016;2022-11-27T11:29:59;13.10;99.90
31084;DHT22;36333;51.382;0.016;2022-11-27T11:32:35;13.90;99.90
31084;DHT22;36333;51.382;0.016;2022-11-27T11:37:54;13.30;99.90
31084;DHT22;36333;51.382;0.016;2022-11-27T11:40:25;13.20;99.90
31084;DHT22;36333;51.382;0.016;2022-11-27T11:45:42;13.20;99.90
31084;DHT22;36333;51.382;0.016;2022-11-27T11:48:26;13.30;99.90
31084;DHT22;36333;51.382;0.016;2022-11-27T11:51:15;13.10;99.90
31084;DHT22;36333;51.382;0.016;2022-11-27T11:56:39;13.20;99.90
31084;DHT22;36333;51.382;0.016;2022-11-27T12:11:01;13.20;99.90
31084;DHT22;36333;51.382;0.016;2022-11-27T12:14:01;13.30;99.90
31084;DHT22;36333;51.382;0.016;2022-11-27T12:19:40;13.30;99.90
31084;DHT22;36333;51.382;0.016;2022-11-27T12:24:59;13.40;99.90
31084;DHT22;36333;51.382;0.016;2022-11-27T12:42:13;13.50;99.90
31084;DHT22;36333;51.382;0.016;2022-11-27T12:45:18;13.60;99.90
31084;DHT22;36333;51.382;0.016;2022-11-27T12:47:54;13.50;99.90
31084;DHT22;36333;51.382;0.016;2022-11-27T12:50:50;13.60;99.90
31084;DHT22;36333;51.382;0.016;2022-11-27T12:53:40;13.60;99.90
31084;DHT22;36333;51.382;0.016;2022-11-27T13:01:37;13.70;99.90
31084;DHT22;36333;51.382;0.016;2022-11-27T13:04:28;13.70;99.90
31084;DHT22;36333;51.382;0.016;2022-11-27T13:07:22;13.70;99.90
31084;DHT22;36333;51.382;0.016;2022-11-27T13:16:13;13.70;99.90
31084;DHT22;36333;51.382;0.016;2022-11-27T13:21:37;13.60;99.90
31084;DHT22;36333;51.382;0.016;2022-11-27T13:24:11;13.60;99.90
31084;DHT22;36333;51.382;0.016;2022-11-27T13:26:45;13.60;99.90
31084;DHT22;36333;51.382;0.016;2022-11-27T13:29:31;13.80;99.90
31084;DHT22;36333;51.382;0.016;2022-11-27T13:32:03;13.60;99.90
31084;DHT22;36333;51.382;0.016;2022-11-27T13:34:45;13.50;99.90
31084;DHT22;36333;51.382;0.016;2022-11-27T13:37:35;13.60;99.90
31084;DHT22;36333;51.382;0.016;2022-11-27T13:42:35;13.40;99.90
31084;DHT22;36333;51.382;0.016;2022-11-27T13:45:21;13.40;99.90
31084;DHT22;36333;51.382;0.016;2022-11-27T13:47:50;13.50;99.90
31084;DHT22;36333;51.382;0.016;2022-11-27T13:50:26;13.40;99.90
31084;DHT22;36333;51.382;0.016;2022-11-27T13:53:04;13.30;99.90
31084;DHT22;36333;51.382;0.016;2022-11-27T13:55:35;13.40;99.90
31084;DHT22;36333;51.382;0.016;2022-11-27T13:58:04;13.40;99.90
31084;DHT22;36333;51.382;0.016;2022-11-27T14:00:43;13.30;99.90
31084;DHT22;36333;51.382;0.016;2022-11-27T14:03:28;15.70;99.90
31084;DHT22;36333;51.382;0.016;2022-11-27T14:05:56;13.80;99.90
31084;DHT22;36333;51.382;0.016;2022-11-27T14:08:34;13.40;99.90
31084;DHT22;36333;51.382;0.016;2022-11-27T14:11:05;13.40;99.90
31084;DHT22;36333;51.382;0.016;2022-11-27T14:13:40;13.40;99.90
31084;DHT22;36333;51.382;0.016;2022-11-27T14:18:52;13.30;99.90
31084;DHT22;36333;51.382;0.016;2022-11-27T14:24:32;13.30;99.90
31084;DHT22;36333;51.382;0.016;2022-11-27T14:35:27;13.20;99.90
31084;DHT22;36333;51.382;0.016;2022-11-27T14:38:10;13.10;99.90
31084;DHT22;36333;51.382;0.016;2022-11-27T14:40:38;13.40;99.90
31084;DHT22;36333;51.382;0.016;2022-11-27T14:43:13;13.10;99.90
31084;DHT22;36333;51.382;0.016;2022-11-27T14:45:46;13.10;99.90
31084;DHT22;36333;51.382;0.016;2022-11-27T14:48:18;13.00;99.90
31084;DHT22;36333;51.382;0.016;2022-11-27T14:50:47;13.00;99.90
31084;DHT22;36333;51.382;0.016;2022-11-27T14:53:18;12.90;99.90
31084;DHT22;36333;51.382;0.016;2022-11-27T14:55:53;12.90;99.90
31084;DHT22;36333;51.382;0.016;2022-11-27T14:58:26;12.90;99.90
31084;DHT22;36333;51.382;0.016;2022-11-27T15:01:04;12.90;99.90
31084;DHT22;36333;51.382;0.016;2022-11-27T15:03:32;12.80;99.90
31084;DHT22;36333;51.382;0.016;2022-11-27T15:06:02;12.80;99.90
31084;DHT22;36333;51.382;0.016;2022-11-27T15:08:34;12.70;99.90
31084;DHT22;36333;51.382;0.016;2022-11-27T15:11:03;12.70;99.90
31084;DHT22;36333;51.382;0.016;2022-11-27T15:13:33;12.70;99.90
31084;DHT22;36333;51.382;0.016;2022-11-27T15:16:13;12.70;99.90
31084;DHT22;36333;51.382;0.016;2022-11-27T15:18:42;12.70;99.90
31084;DHT22;36333;51.382;0.016;2022-11-27T15:21:18;12.70;99.90
31084;DHT22;36333;51.382;0.016;2022-11-27T15:23:49;12.60;99.90
31084;DHT22;36333;51.382;0.016;2022-11-27T15:26:37;12.60;99.90
31084;DHT22;36333;51.382;0.016;2022-11-27T15:29:45;12.70;99.90
31084;DHT22;36333;51.382;0.016;2022-11-27T15:32:22;12.60;99.90
31084;DHT22;36333;51.382;0.016;2022-11-27T15:34:54;12.60;99.90
31084;DHT22;36333;51.382;0.016;2022-11-27T15:37:32;12.60;99.90
31084;DHT22;36333;51.382;0.016;2022-11-27T15:40:13;12.50;99.90
31084;DHT22;36333;51.382;0.016;2022-11-27T15:42:42;12.50;99.90
31084;DHT22;36333;51.382;0.016;2022-11-27T15:45:13;12.50;99.90
31084;DHT22;36333;51.382;0.016;2022-11-27T15:47:41;12.40;99.90
31084;DHT22;36333;51.382;0.016;2022-11-27T15:50:15;12.90;99.90
31084;DHT22;36333;51.382;0.016;2022-11-27T15:52:43;12.40;99.90
31084;DHT22;36333;51.382;0.016;2022-11-27T15:55:14;14.10;99.90
31084;DHT22;36333;51.382;0.016;2022-11-27T15:57:44;12.30;99.90
31084;DHT22;36333;51.382;0.016;2022-11-27T16:00:12;12.30;99.90
31084;DHT22;36333;51.382;0.016;2022-11-27T16:02:40;12.30;99.90
31084;DHT22;36333;51.382;0.016;2022-11-27T16:05:08;12.20;99.90
31084;DHT22;36333;51.382;0.016;2022-11-27T16:07:36;12.20;99.90
31084;DHT22;36333;51.382;0.016;2022-11-27T16:10:04;12.20;99.90
31084;DHT22;36333;51.382;0.016;2022-11-27T16:12:32;12.10;99.90
31084;DHT22;36333;51.382;0.016;2022-11-27T16:15:00;12.10;99.90
31084;DHT22;36333;51.382;0.016;2022-11-27T16:17:27;12.10;99.90
31084;DHT22;36333;51.382;0.016;2022-11-27T16:19:55;12.10;99.90
31084;DHT22;36333;51.382;0.016;2022-11-27T16:22:22;12.10;99.90
31084;DHT22;36333;51.382;0.016;2022-11-27T16:24:50;12.00;99.90
31084;DHT22;36333;51.382;0.016;2022-11-27T16:27:18;12.00;99.90
31084;DHT22;36333;51.382;0.016;2022-11-27T16:29:45;12.00;99.90
31084;DHT22;36333;51.382;0.016;2022-11-27T16:32:13;12.00;99.90
31084;DHT22;36333;51.382;0.016;2022-11-27T16:34:40;12.00;99.90
31084;DHT22;36333;51.382;0.016;2022-11-27T16:37:08;12.10;99.90
31084;DHT22;36333;51.382;0.016;2022-11-27T16:39:43;12.00;99.90
31084;DHT22;36333;51.382;0.016;2022-11-27T16:42:12;12.00;99.90
31084;DHT22;36333;51.382;0.016;2022-11-27T16:44:39;11.90;99.90
31084;DHT22;36333;51.382;0.016;2022-11-27T16:47:09;12.00;99.90
31084;DHT22;36333;51.382;0.016;2022-11-27T16:49:38;11.90;99.90
31084;DHT22;36333;51.382;0.016;2022-11-27T16:52:06;11.80;99.90
31084;DHT22;36333;51.382;0.016;2022-11-27T16:54:33;11.80;99.90
31084;DHT22;36333;51.382;0.016;2022-11-27T16:57:07;12.00;99.90
31084;DHT22;36333;51.382;0.016;2022-11-27T16:59:34;11.70;99.90
31084;DHT22;36333;51.382;0.016;2022-11-27T17:02:04;11.70;99.90
31084;DHT22;36333;51.382;0.016;2022-11-27T17:04:32;11.70;99.90
31084;DHT22;36333;51.382;0.016;2022-11-27T17:07:00;11.70;99.90
31084;DHT22;36333;51.382;0.016;2022-11-27T17:09:27;11.60;99.90
31084;DHT22;36333;51.382;0.016;2022-11-27T17:11:55;11.60;99.90
31084;DHT22;36333;51.382;0.016;2022-11-27T17:14:25;11.60;99.90
31084;DHT22;36333;51.382;0.016;2022-11-27T17:16:53;11.50;99.90
31084;DHT22;36333;51.382;0.016;2022-11-27T17:19:22;11.50;99.90
31084;DHT22;36333;51.382;0.016;2022-11-27T17:21:50;11.50;99.90
31084;DHT22;36333;51.382;0.016;2022-11-27T17:24:19;11.50;99.90
31084;DHT22;36333;51.382;0.016;2022-11-27T17:26:49;11.60;99.90
31084;DHT22;36333;51.382;0.016;2022-11-27T17:29:18;11.40;99.90
31084;DHT22;36333;51.382;0.016;2022-11-27T17:31:49;11.40;99.90
31084;DHT22;36333;51.382;0.016;2022-11-27T17:34:17;11.40;99.90
31084;DHT22;36333;51.382;0.016;2022-11-27T17:36:46;11.30;99.90
31084;DHT22;36333;51.382;0.016;2022-11-27T17:39:16;11.30;99.90
31084;DHT22;36333;51.382;0.016;2022-11-27T17:41:44;11.20;99.90
31084;DHT22;36333;51.382;0.016;2022-11-27T17:44:12;11.30;99.90
31084;DHT22;36333;51.382;0.016;2022-11-27T17:46:39;11.20;99.90
31084;DHT22;36333;51.382;0.016;2022-11-27T17:49:07;11.20;99.90
31084;DHT22;36333;51.382;0.016;2022-11-27T17:51:35;11.20;99.90
31084;DHT22;36333;51.382;0.016;2022-11-27T17:54:03;11.20;99.90
31084;DHT22;36333;51.382;0.016;2022-11-27T17:56:34;11.20;99.90
31084;DHT22;36333;51.382;0.016;2022-11-27T17:59:02;12.10;99.90
31084;DHT22;36333;51.382;0.016;2022-11-27T18:01:30;11.10;99.90
31084;DHT22;36333;51.382;0.016;2022-11-27T18:03:58;11.20;99.90